createdAt,value
2019-05-20T00:01:56.288Z,12.90
2019-05-20T00:04:24.166Z,13.53
2019-05-20T00:06:52.538Z,13.53
2019-05-20T00:09:25.048Z,13.73
2019-05-20T00:11:53.794Z,14.03
2019-05-20T00:14:22.125Z,13.60
2019-05-20T00:16:52.338Z,14.03
2019-05-20T00:19:22.729Z,14.87
2019-05-20T00:21:50.444Z,14.70
2019-05-20T00:24:19.805Z,13.73
2019-05-20T00:26:47.736Z,14.03
2019-05-20T00:29:16.825Z,14.00
2019-05-20T00:31:44.533Z,13.70
2019-05-20T00:34:12.190Z,13.23
2019-05-20T00:36:39.811Z,13.73
2019-05-20T00:39:18.530Z,13.10
2019-05-20T00:41:46.711Z,14.10
2019-05-20T00:44:15.046Z,14.00
2019-05-20T00:46:42.704Z,14.50
2019-05-20T00:49:10.591Z,13.47
2019-05-20T00:51:38.841Z,14.83
2019-05-20T00:54:09.739Z,15.00
2019-05-20T00:56:37.443Z,14.97
2019-05-20T00:59:05.351Z,15.80
2019-05-20T01:01:33.083Z,17.77
2019-05-20T01:04:00.766Z,15.80
2019-05-20T01:06:28.440Z,16.47
2019-05-20T01:08:56.421Z,16.57
2019-05-20T01:11:24.256Z,15.97
2019-05-20T01:13:52.007Z,14.80
2019-05-20T01:16:19.631Z,12.40
2019-05-20T01:18:50.178Z,13.10
2019-05-20T01:21:17.902Z,12.70
2019-05-20T01:23:45.519Z,13.20
2019-05-20T01:26:13.719Z,11.17
2019-05-20T01:28:42.652Z,11.73
2019-05-20T01:31:15.542Z,12.00
2019-05-20T01:33:43.157Z,12.03
2019-05-20T01:36:10.984Z,11.97
2019-05-20T01:38:40.692Z,12.20
2019-05-20T01:41:08.299Z,13.17
2019-05-20T01:43:36.910Z,13.57
2019-05-20T01:46:05.188Z,13.90
2019-05-20T01:48:32.854Z,13.97
2019-05-20T01:51:01.062Z,13.63
2019-05-20T01:53:31.151Z,13.77
2019-05-20T01:55:58.775Z,13.53
2019-05-20T01:58:31.347Z,12.87
2019-05-20T02:00:59.178Z,13.43
2019-05-20T02:03:31.606Z,12.90
2019-05-20T02:05:57.491Z,12.97
2019-05-20T02:08:25.280Z,13.13
2019-05-20T02:10:56.306Z,13.10
2019-05-20T02:13:27.719Z,14.17
2019-05-20T02:16:13.803Z,14.00
2019-05-20T02:18:46.722Z,12.83
2019-05-20T02:21:15.508Z,13.17
2019-05-20T02:23:43.200Z,13.50
2019-05-20T02:26:10.914Z,13.30
2019-05-20T02:28:38.480Z,13.13
2019-05-20T02:31:07.967Z,12.80
2019-05-20T02:33:50.757Z,13.77
2019-05-20T02:36:07.940Z,13.63
2019-05-20T02:38:35.535Z,13.57
2019-05-20T02:41:03.598Z,13.17
2019-05-20T02:43:31.162Z,12.33
2019-05-20T02:46:01.013Z,13.23
2019-05-20T02:48:34.224Z,13.27
2019-05-20T02:51:02.155Z,14.27
2019-05-20T02:53:33.850Z,13.83
2019-05-20T02:56:01.464Z,13.60
2019-05-20T02:58:29.070Z,13.07
2019-05-20T03:00:56.867Z,13.77
2019-05-20T03:03:24.993Z,13.13
2019-05-20T03:05:56.123Z,13.53
2019-05-20T03:08:23.765Z,12.37
2019-05-20T03:10:51.460Z,14.00
2019-05-20T03:13:19.069Z,13.57
2019-05-20T03:15:49.137Z,13.53
2019-05-20T03:18:17.072Z,12.33
2019-05-20T03:20:46.511Z,12.20
2019-05-20T03:23:14.435Z,12.50
2019-05-20T03:25:42.281Z,12.37
2019-05-20T03:28:10.005Z,11.80
2019-05-20T03:30:40.130Z,12.53
2019-05-20T03:33:07.933Z,12.93
2019-05-20T03:35:35.636Z,13.33
2019-05-20T03:38:03.490Z,13.97
2019-05-20T03:40:31.139Z,14.03
2019-05-20T03:42:58.749Z,13.37
2019-05-20T03:45:32.957Z,11.80
2019-05-20T03:48:00.662Z,12.50
2019-05-20T03:50:28.558Z,13.37
2019-05-20T03:52:58.987Z,12.97
2019-05-20T03:55:29.043Z,13.60
2019-05-20T03:58:12.984Z,13.67
2019-05-20T04:00:43.515Z,12.77
2019-05-20T04:03:13.989Z,12.80
2019-05-20T04:05:42.177Z,12.67
2019-05-20T04:08:12.617Z,12.97
2019-05-20T04:10:40.592Z,12.17
2019-05-20T04:13:11.351Z,12.40
2019-05-20T04:15:39.555Z,12.47
2019-05-20T04:18:10.108Z,13.17
2019-05-20T04:20:43.431Z,12.70
2019-05-20T04:23:14.066Z,12.73
2019-05-20T04:25:46.809Z,12.30
2019-05-20T04:28:17.213Z,11.63
2019-05-20T04:30:57.358Z,12.60
2019-05-20T04:33:28.646Z,11.90
2019-05-20T04:35:57.760Z,11.33
2019-05-20T04:38:27.897Z,11.63
2019-05-20T04:41:02.437Z,11.47
2019-05-20T04:43:31.982Z,11.93
2019-05-20T04:46:04.129Z,11.87
2019-05-20T04:52:26.833Z,11.00
2019-05-20T04:55:22.876Z,11.83
2019-05-20T04:58:10.611Z,10.97
2019-05-20T05:01:03.223Z,11.27
2019-05-20T05:03:31.208Z,10.90
2019-05-20T05:05:58.936Z,10.83
2019-05-20T05:08:26.675Z,11.07
2019-05-20T05:10:59.099Z,11.17
2019-05-20T05:18:02.983Z,10.87
2019-05-20T05:24:16.434Z,11.37
2019-05-20T05:27:01.475Z,11.40
2019-05-20T05:29:50.245Z,12.00
2019-05-20T05:33:08.391Z,12.33
2019-05-20T05:40:07.909Z,11.60
2019-05-20T05:42:48.313Z,11.90
2019-05-20T05:46:01.524Z,11.40
2019-05-20T05:49:26.168Z,11.37
2019-05-20T05:52:00.258Z,10.63
2019-05-20T06:02:36.519Z,10.43
2019-05-20T06:06:19.584Z,10.17
2019-05-20T06:13:14.689Z,10.53
2019-05-20T06:16:06.687Z,10.00
2019-05-20T06:18:36.646Z,11.00
2019-05-20T06:21:10.341Z,10.17
2019-05-20T06:23:50.569Z,11.33
2019-05-20T06:26:39.516Z,10.60
2019-05-20T06:29:37.489Z,11.53
2019-05-20T06:32:27.356Z,11.23
2019-05-20T06:41:23.266Z,11.63
2019-05-20T06:44:18.969Z,11.23
2019-05-20T06:47:46.304Z,10.10
2019-05-20T06:55:02.254Z,11.57
2019-05-20T07:01:47.555Z,11.23
2019-05-20T07:12:06.384Z,11.63
2019-05-20T07:19:10.859Z,10.50
2019-05-20T07:22:16.614Z,10.90
2019-05-20T07:24:45.581Z,10.70
2019-05-20T07:31:25.885Z,10.87
2019-05-20T07:37:17.246Z,10.13
2019-05-20T07:39:47.667Z,9.77
2019-05-20T07:42:15.300Z,9.90
2019-05-20T07:44:49.241Z,10.00
2019-05-20T07:47:27.499Z,9.80
2019-05-20T07:50:04.364Z,9.87
2019-05-20T07:52:45.724Z,10.00
2019-05-20T08:03:15.594Z,10.20
2019-05-20T08:05:49.357Z,10.33
2019-05-20T08:08:32.526Z,10.67
2019-05-20T08:11:18.345Z,10.10
2019-05-20T08:14:59.905Z,11.00
2019-05-20T08:17:54.700Z,10.83
2019-05-20T08:21:03.584Z,10.57
2019-05-20T08:23:31.800Z,10.77
2019-05-20T08:26:03.352Z,10.57
2019-05-20T08:28:43.380Z,9.40
2019-05-20T08:31:47.267Z,9.80
2019-05-20T08:34:19.204Z,9.17
2019-05-20T08:37:05.550Z,9.17
2019-05-20T08:39:37.781Z,10.63
2019-05-20T08:42:39.087Z,9.20
2019-05-20T08:49:35.768Z,9.17
2019-05-20T08:52:15.943Z,9.03
2019-05-20T08:54:48.093Z,9.77
2019-05-20T08:57:32.073Z,9.37
2019-05-20T09:00:00.377Z,9.40
2019-05-20T09:02:48.487Z,9.63
2019-05-20T09:05:43.314Z,9.83
2019-05-20T09:08:50.186Z,9.57
2019-05-20T09:15:01.329Z,11.20
2019-05-20T09:17:41.131Z,10.50
2019-05-20T09:20:43.275Z,11.10
2019-05-20T09:23:22.966Z,11.00
2019-05-20T09:26:15.431Z,11.07
2019-05-20T09:29:20.481Z,10.50
2019-05-20T09:38:52.389Z,11.40
2019-05-20T09:41:55.474Z,10.83
2019-05-20T09:44:37.098Z,12.27
2019-05-20T09:47:14.801Z,11.77
2019-05-20T09:49:59.829Z,12.10
2019-05-20T09:53:07.148Z,11.80
2019-05-20T10:00:05.810Z,12.10
2019-05-20T10:02:57.006Z,11.27
2019-05-20T10:06:14.517Z,11.97
2019-05-20T10:10:03.255Z,11.37
2019-05-20T10:13:05.754Z,11.20
2019-05-20T10:15:47.794Z,10.73
2019-05-20T10:18:44.472Z,11.53
2019-05-20T10:21:58.461Z,12.13
2019-05-20T10:24:59.027Z,11.10
2019-05-20T10:28:02.658Z,12.27
2019-05-20T10:30:57.311Z,12.90
2019-05-20T10:34:14.862Z,12.77
2019-05-20T10:38:02.627Z,12.93
2019-05-20T10:40:47.688Z,13.93
2019-05-20T10:43:45.410Z,12.80
2019-05-20T10:46:24.518Z,13.27
2019-05-20T10:49:04.193Z,14.00
2019-05-20T10:51:55.884Z,14.83
2019-05-20T10:57:46.981Z,13.90
2019-05-20T11:07:52.248Z,15.73
2019-05-20T11:10:24.293Z,15.33
2019-05-20T11:13:02.483Z,16.63
2019-05-20T11:19:33.724Z,15.83
2019-05-20T11:22:58.884Z,15.80
2019-05-20T11:26:05.522Z,15.80
2019-05-20T11:28:34.353Z,16.40
2019-05-20T11:31:10.027Z,15.53
2019-05-20T11:34:08.988Z,15.30
2019-05-20T11:40:27.325Z,15.03
2019-05-20T11:45:59.638Z,15.17
2019-05-20T11:48:41.157Z,14.80
2019-05-20T11:51:30.010Z,13.97
2019-05-20T11:54:03.207Z,14.80
2019-05-20T11:56:31.212Z,15.20
2019-05-20T11:59:42.389Z,17.07
2019-05-20T12:02:19.980Z,14.70
2019-05-20T12:04:59.491Z,15.87
2019-05-20T12:07:48.411Z,15.43
2019-05-20T12:10:56.815Z,14.93
2019-05-20T12:13:41.792Z,14.30
2019-05-20T12:16:35.227Z,14.37
2019-05-20T12:22:03.406Z,14.47
2019-05-20T12:25:15.520Z,13.90
2019-05-20T12:32:03.235Z,14.07
2019-05-20T12:34:29.473Z,15.37
2019-05-20T12:36:59.198Z,14.90
2019-05-20T12:39:30.179Z,14.57
2019-05-20T12:42:00.212Z,15.67
2019-05-20T12:45:41.839Z,17.07
2019-05-20T12:48:13.096Z,16.87
2019-05-20T12:50:55.954Z,18.13
2019-05-20T12:53:25.725Z,9.67
2019-05-20T12:55:58.741Z,5.90
2019-05-20T12:59:24.340Z,6.20
2019-05-20T13:02:56.381Z,5.90
2019-05-20T13:05:25.869Z,6.17
2019-05-20T13:07:57.056Z,8.10
2019-05-20T13:10:51.739Z,8.43
2019-05-20T13:14:18.501Z,6.90
2019-05-20T13:17:13.139Z,8.00
2019-05-20T13:19:41.043Z,7.37
2019-05-20T13:22:08.649Z,8.37
2019-05-20T13:28:24.251Z,8.33
2019-05-20T13:31:15.176Z,8.70
2019-05-20T13:34:25.232Z,7.93
2019-05-20T13:37:06.279Z,8.83
2019-05-20T13:39:35.540Z,8.37
2019-05-20T13:42:09.355Z,9.13
2019-05-20T13:45:15.700Z,8.37
2019-05-20T13:48:16.115Z,7.60
2019-05-20T13:51:04.312Z,8.00
2019-05-20T13:54:19.064Z,8.20
2019-05-20T14:00:40.245Z,9.07
2019-05-20T14:04:04.730Z,8.93
2019-05-20T14:06:34.497Z,9.63
2019-05-20T14:09:12.233Z,9.00
2019-05-20T14:11:40.119Z,8.17
2019-05-20T14:14:36.797Z,9.53
2019-05-20T14:17:24.176Z,8.70
2019-05-20T14:20:36.695Z,9.73
2019-05-20T14:34:20.997Z,11.87
2019-05-20T14:36:52.984Z,11.13
2019-05-20T14:39:32.032Z,10.33
2019-05-20T14:42:54.643Z,12.00
2019-05-20T14:45:41.264Z,9.73
2019-05-20T14:48:42.260Z,10.40
2019-05-20T14:51:21.502Z,11.80
2019-05-20T14:54:44.132Z,11.57
2019-05-20T14:57:57.220Z,11.00
2019-05-20T15:00:50.599Z,11.67
2019-05-20T15:03:33.804Z,14.43
2019-05-20T15:06:28.698Z,14.73
2019-05-20T15:09:50.792Z,15.17
2019-05-20T15:12:54.280Z,14.03
2019-05-20T15:15:28.244Z,14.53
2019-05-20T15:18:39.156Z,13.57
2019-05-20T15:21:35.940Z,13.23
2019-05-20T15:24:51.810Z,15.10
2019-05-20T15:27:41.672Z,15.17
2019-05-20T15:30:31.816Z,16.07
2019-05-20T15:33:37.191Z,16.67
2019-05-20T15:36:18.588Z,16.70
2019-05-20T15:38:50.400Z,18.53
2019-05-20T15:41:57.249Z,18.50
2019-05-20T15:45:11.832Z,19.13
2019-05-20T15:48:32.421Z,17.97
2019-05-20T15:51:32.129Z,15.13
2019-05-20T15:54:27.708Z,15.60
2019-05-20T16:04:17.696Z,12.93
2019-05-20T16:07:04.974Z,13.23
2019-05-20T16:10:11.325Z,12.57
2019-05-20T16:12:40.499Z,12.30
2019-05-20T16:15:59.403Z,13.17
2019-05-20T16:18:47.737Z,11.93
2019-05-20T16:21:33.666Z,12.17
2019-05-20T16:24:04.642Z,15.67
2019-05-20T16:27:06.651Z,12.43
2019-05-20T16:29:35.663Z,14.07
2019-05-20T16:32:03.626Z,13.90
2019-05-20T16:39:09.744Z,16.97
2019-05-20T16:41:51.229Z,17.40
2019-05-20T16:44:19.769Z,23.30
2019-05-20T16:46:49.947Z,22.47
2019-05-20T16:49:19.341Z,28.33
2019-05-20T16:51:49.913Z,31.83
2019-05-20T16:54:30.893Z,32.97
2019-05-20T17:00:30.059Z,38.37
2019-05-20T17:03:56.944Z,38.70
2019-05-20T17:07:33.357Z,40.93
2019-05-20T17:10:14.196Z,43.53
2019-05-20T17:12:42.053Z,44.40
2019-05-20T17:15:17.073Z,44.00
2019-05-20T17:18:42.881Z,34.53
2019-05-20T17:21:10.419Z,18.13
2019-05-20T17:24:03.428Z,13.63
2019-05-20T17:26:35.719Z,13.37
2019-05-20T17:33:18.882Z,10.43
2019-05-20T17:36:06.189Z,9.53
2019-05-20T17:39:00.823Z,9.70
2019-05-20T17:41:44.976Z,11.20
2019-05-20T17:44:37.810Z,10.90
2019-05-20T17:47:15.505Z,10.37
2019-05-20T17:49:54.393Z,10.27
2019-05-20T17:52:23.428Z,9.60
2019-05-20T17:55:14.362Z,9.20
2019-05-20T17:57:54.253Z,8.17
2019-05-20T18:00:23.245Z,7.23
2019-05-20T18:02:54.273Z,7.83
2019-05-20T18:05:27.207Z,6.67
2019-05-20T18:08:04.546Z,8.40
2019-05-20T18:10:37.312Z,7.10
2019-05-20T18:13:15.830Z,7.20
2019-05-20T18:15:59.259Z,7.33
2019-05-20T18:18:40.418Z,9.73
2019-05-20T18:21:13.625Z,11.57
2019-05-20T18:23:47.315Z,10.60
2019-05-20T18:26:36.091Z,12.13
2019-05-20T18:33:39.849Z,12.17
2019-05-20T18:36:12.597Z,17.80
2019-05-20T18:38:40.396Z,21.43
2019-05-20T18:41:08.102Z,23.80
2019-05-20T18:43:40.277Z,24.80
2019-05-20T18:46:12.785Z,27.10
2019-05-20T18:48:47.451Z,27.33
2019-05-20T18:51:30.776Z,28.27
2019-05-20T18:53:58.633Z,29.87
2019-05-20T18:56:36.448Z,31.50
2019-05-20T18:59:05.153Z,31.83
2019-05-20T19:01:55.742Z,31.33
2019-05-20T19:04:20.814Z,33.30
2019-05-20T19:06:49.533Z,32.37
2019-05-20T19:09:18.613Z,33.30
2019-05-20T19:11:46.309Z,33.43
2019-05-20T19:14:43.950Z,34.07
2019-05-20T19:17:30.894Z,30.10
2019-05-20T19:20:52.168Z,34.07
2019-05-20T19:23:45.648Z,31.83
2019-05-20T19:26:24.374Z,37.13
2019-05-20T19:28:44.043Z,32.10
2019-05-20T19:31:12.343Z,34.47
2019-05-20T19:33:40.726Z,34.60
2019-05-20T19:36:13.639Z,32.57
2019-05-20T19:38:48.421Z,32.97
2019-05-20T19:41:50.807Z,36.07
2019-05-20T19:45:13.033Z,36.83
2019-05-20T19:48:36.048Z,31.47
2019-05-20T19:51:05.063Z,29.90
2019-05-20T19:53:35.085Z,31.23
2019-05-20T19:56:08.416Z,33.70
2019-05-20T19:58:37.532Z,32.07
2019-05-20T20:01:06.146Z,29.93
2019-05-20T20:03:34.748Z,29.33
2019-05-20T20:06:15.275Z,33.03
2019-05-20T20:09:20.313Z,30.47
2019-05-20T20:18:27.754Z,31.50
2019-05-20T20:20:58.697Z,32.27
2019-05-20T20:23:27.018Z,31.53
2019-05-20T20:25:57.249Z,29.57
2019-05-20T20:29:06.802Z,30.67
2019-05-20T20:32:02.372Z,28.00
2019-05-20T20:34:22.294Z,31.50
2019-05-20T20:37:29.129Z,29.70
2019-05-20T20:40:11.577Z,27.27
2019-05-20T20:42:48.812Z,26.43
2019-05-20T20:45:16.815Z,25.53
2019-05-20T20:47:51.777Z,28.00
2019-05-20T20:50:19.982Z,24.77
2019-05-20T20:52:47.944Z,24.90
2019-05-20T20:55:17.992Z,24.80
2019-05-20T20:57:48.955Z,23.30
2019-05-20T21:00:22.126Z,21.20
2019-05-20T21:02:53.129Z,21.70
2019-05-20T21:05:20.200Z,19.80
2019-05-20T21:07:51.603Z,19.23
2019-05-20T21:10:22.518Z,18.70
2019-05-20T21:12:51.120Z,17.17
2019-05-20T21:15:24.003Z,16.93
2019-05-20T21:17:53.561Z,17.07
2019-05-20T21:20:23.436Z,15.43
2019-05-20T21:22:53.968Z,14.30
2019-05-20T21:25:27.261Z,14.60
2019-05-20T21:28:10.500Z,14.53
2019-05-20T21:30:38.384Z,14.47
2019-05-20T21:33:09.872Z,13.37
2019-05-20T21:35:37.886Z,14.90
2019-05-20T21:38:12.670Z,13.90
2019-05-20T21:40:43.346Z,14.47
2019-05-20T21:43:11.489Z,12.70
2019-05-20T21:45:39.288Z,13.07
2019-05-20T21:48:10.316Z,12.80
2019-05-20T21:50:43.813Z,12.17
2019-05-20T21:53:15.284Z,12.00
2019-05-20T21:55:46.327Z,11.83
2019-05-20T21:58:16.349Z,11.63
2019-05-20T22:00:58.642Z,12.20
2019-05-20T22:03:30.155Z,11.50
2019-05-20T22:05:57.878Z,12.50
2019-05-20T22:08:25.862Z,12.17
2019-05-20T22:10:53.568Z,12.43
2019-05-20T22:13:21.749Z,12.33
2019-05-20T22:15:49.606Z,12.80
2019-05-20T22:18:26.817Z,12.73
2019-05-20T22:20:57.010Z,11.70
2019-05-20T22:23:46.003Z,12.53
2019-05-20T22:26:14.046Z,13.67
2019-05-20T22:28:41.618Z,12.43
2019-05-20T22:31:10.726Z,13.80
2019-05-20T22:34:09.237Z,13.27
2019-05-20T22:36:50.813Z,14.83
2019-05-20T22:39:20.391Z,14.00
2019-05-20T22:41:51.639Z,14.77
2019-05-20T22:44:19.456Z,12.83
2019-05-20T22:46:47.425Z,18.20
2019-05-20T22:49:15.868Z,13.73
2019-05-20T22:51:43.530Z,14.40
2019-05-20T22:54:11.621Z,14.27
2019-05-20T22:56:41.669Z,12.37
2019-05-20T22:59:09.535Z,11.97
2019-05-20T23:01:38.602Z,13.10
2019-05-20T23:04:09.533Z,12.00
2019-05-20T23:06:37.197Z,12.30
2019-05-20T23:09:07.525Z,10.80
2019-05-20T23:11:35.602Z,11.60
2019-05-20T23:14:03.545Z,11.67
2019-05-20T23:16:31.455Z,12.07
2019-05-20T23:18:59.265Z,11.63
2019-05-20T23:21:26.932Z,14.00
2019-05-20T23:23:55.603Z,11.30
2019-05-20T23:26:23.444Z,9.27
2019-05-20T23:28:51.181Z,8.70
2019-05-20T23:31:19.999Z,8.87
2019-05-20T23:33:49.531Z,7.70
2019-05-20T23:36:17.346Z,11.33
2019-05-20T23:38:45.299Z,8.30
2019-05-20T23:41:15.591Z,8.20
2019-05-20T23:43:44.621Z,7.90
2019-05-20T23:46:12.390Z,9.23
2019-05-20T23:48:41.256Z,7.80
2019-05-20T23:51:11.410Z,7.07
2019-05-20T23:53:39.161Z,6.67
2019-05-20T23:56:09.035Z,6.40
2019-05-20T23:58:36.831Z,6.67
